Time;durP1;ratioP1;P1;durP2;ratioP2;P2;SDS_P1;SDS_P2;PMS_P1;PMS_P2;Temp;Humidity;BMP_temperature;BMP_pressure;BME280_temperature;BME280_humidity;BME280_pressure;Samples;Min_cycle;Max_cycle;Signal;HPM_P1;HPM_P2
2023/02/26 00:00:33;;;;;;;2.23;1.70;;;2.60;99.90;3.30;95586.00;;;;5030838;28;20431;-90
2023/02/26 00:03:22;;;;;;;1.40;1.30;;;2.50;99.90;3.00;95586.00;;;;5031454;28;20476;-90
2023/02/26 00:06:11;;;;;;;0.80;0.80;;;2.80;99.90;2.90;95602.00;;;;5021341;28;20434;-89
2023/02/26 00:09:00;;;;;;;1.10;1.00;;;2.30;99.90;2.90;95596.00;;;;5030025;28;20479;-90
2023/02/26 00:11:49;;;;;;;1.10;1.00;;;2.20;99.90;3.20;95586.00;;;;5031131;28;20423;-90
2023/02/26 00:14:39;;;;;;;1.03;1.03;;;2.20;99.90;3.30;95575.00;;;;5032359;28;20452;-90
2023/02/26 00:17:42;;;;;;;1.63;0.80;;;2.10;99.90;3.10;95596.00;;;;5010120;28;20416;-91
2023/02/26 00:20:33;;;;;;;0.80;0.80;;;2.10;99.90;3.00;95599.00;;;;5031490;28;20424;-91
2023/02/26 00:23:23;;;;;;;0.80;0.80;;;2.20;99.90;3.20;95605.00;;;;5040334;28;20475;-90
2023/02/26 00:26:12;;;;;;;1.00;0.90;;;2.10;99.90;3.20;95609.00;;;;5043856;28;20436;-91
2023/02/26 00:29:02;;;;;;;4.07;2.90;;;2.20;99.90;3.20;95622.00;;;;5030742;28;20425;-91
2023/02/26 00:31:52;;;;;;;5.93;3.93;;;2.10;99.90;3.00;95614.00;;;;5013005;28;20499;-91
2023/02/26 00:34:43;;;;;;;1.80;1.70;;;2.10;99.90;2.90;95606.00;;;;5011487;28;20449;-90
2023/02/26 00:37:53;;;;;;;2.90;1.23;;;2.10;99.90;3.10;95618.00;;;;5025405;28;20452;-92
2023/02/26 00:40:45;;;;;;;2.10;0.90;;;2.00;99.90;2.90;95618.00;;;;5026040;28;20424;-91
2023/02/26 00:43:35;;;;;;;1.93;1.73;;;2.00;99.90;3.10;95612.00;;;;5031086;28;21043;-91
2023/02/26 00:46:34;;;;;;;1.63;1.50;;;2.00;99.90;3.20;95610.00;;;;5036512;28;20424;-91
2023/02/26 00:49:38;;;;;;;2.87;1.63;;;4.30;99.90;3.20;95615.00;;;;5030554;28;20511;-90
2023/02/26 00:52:36;;;;;;;1.47;1.30;;;2.20;99.90;3.20;95618.00;;;;5029313;28;20432;-91
2023/02/26 00:55:25;;;;;;;2.43;1.90;;;2.10;99.90;3.30;95621.00;;;;5031116;28;20479;-91
2023/02/26 00:58:16;;;;;;;2.10;1.53;;;2.40;99.90;3.20;95615.00;;;;5031336;28;20428;-90
2023/02/26 01:01:05;;;;;;;3.03;1.60;;;2.20;99.90;3.10;95605.00;;;;5029176;28;20424;-91
2023/02/26 01:03:55;;;;;;;1.07;0.93;;;2.10;99.90;3.00;95597.00;;;;5029513;28;20464;-91
2023/02/26 01:06:47;;;;;;;1.60;1.10;;;2.10;99.90;3.10;95594.00;;;;5023393;28;20417;-91
2023/02/26 01:09:38;;;;;;;1.40;1.30;;;2.10;99.90;3.10;95602.00;;;;5027406;28;20424;-90
2023/02/26 01:12:28;;;;;;;4.23;2.43;;;2.00;99.90;3.00;95600.00;;;;5029481;28;20439;-91
2023/02/26 01:15:17;;;;;;;1.90;1.20;;;2.00;99.90;3.00;95598.00;;;;5030510;28;20439;-90
2023/02/26 01:18:15;;;;;;;1.57;1.47;;;2.00;99.90;3.00;95598.00;;;;5033983;28;20910;-90
2023/02/26 01:21:06;;;;;;;0.97;0.97;;;2.00;99.90;3.00;95591.00;;;;5020100;28;20425;-90
2023/02/26 01:23:55;;;;;;;0.80;0.80;;;2.00;99.90;3.00;95586.00;;;;5029152;28;20463;-90
2023/02/26 01:26:48;;;;;;;1.30;1.20;;;2.00;99.90;2.90;95586.00;;;;5030780;28;20507;-90
2023/02/26 01:29:37;;;;;;;1.17;0.80;;;2.00;99.90;2.90;95581.00;;;;5029710;28;20439;-90
2023/02/26 01:32:39;;;;;;;0.80;0.80;;;2.10;99.90;3.00;95583.00;;;;5030512;28;20420;-91
2023/02/26 01:35:43;;;;;;;1.33;0.70;;;2.80;99.90;2.90;95583.00;;;;5030326;28;20424;-91
2023/02/26 01:38:40;;;;;;;0.57;0.57;;;2.30;99.90;3.10;95583.00;;;;5035692;28;20423;-90
2023/02/26 01:41:33;;;;;;;0.70;0.70;;;2.10;99.90;3.00;95594.00;;;;5050040;28;20419;-90
2023/02/26 01:44:31;;;;;;;0.60;0.60;;;2.00;99.90;2.70;95594.00;;;;5009795;28;20539;-91
2023/02/26 01:47:24;;;;;;;0.50;0.50;;;1.90;99.90;2.60;95587.00;;;;5036580;28;20892;-91
2023/02/26 01:50:17;;;;;;;0.70;0.70;;;1.90;99.90;2.60;95585.00;;;;5037592;28;20422;-90
2023/02/26 01:53:25;;;;;;;0.70;0.70;;;1.80;99.90;2.90;95578.00;;;;5029238;28;20463;-90
2023/02/26 01:56:18;;;;;;;0.40;0.40;;;1.80;99.90;2.90;95570.00;;;;5021351;28;20448;-90
2023/02/26 01:59:10;;;;;;;2.17;1.23;;;1.90;99.90;2.90;95560.00;;;;5026410;28;20964;-90
2023/02/26 02:02:03;;;;;;;1.17;0.77;;;1.80;99.90;2.90;95564.00;;;;5029103;28;20447;-90
2023/02/26 02:04:52;;;;;;;0.73;0.73;;;1.80;99.90;2.90;95575.00;;;;5028828;28;20464;-90
2023/02/26 02:07:41;;;;;;;0.63;0.63;;;1.80;99.90;2.70;95589.00;;;;5029437;28;20424;-89
2023/02/26 02:10:30;;;;;;;0.70;0.70;;;3.00;99.90;2.70;95585.00;;;;5029584;28;20430;-90
2023/02/26 02:13:32;;;;;;;0.80;0.80;;;1.70;99.90;2.80;95575.00;;;;5032120;28;20443;-89
2023/02/26 02:16:32;;;;;;;0.70;0.67;;;1.80;99.90;2.80;95603.00;;;;5014891;28;20435;-88
2023/02/26 02:20:10;;;;;;;0.70;0.70;;;1.70;99.90;2.90;95608.00;;;;5029310;28;20477;-90
2023/02/26 02:23:15;;;;;;;0.80;0.80;;;1.80;99.90;2.90;95606.00;;;;5016900;28;20464;-90
2023/02/26 02:26:51;;;;;;;0.63;0.63;;;1.80;99.90;3.00;95599.00;;;;5014801;28;20471;-90
2023/02/26 02:30:08;;;;;;;1.00;0.90;;;1.80;99.90;3.00;95609.00;;;;5020377;28;20497;-91
2023/02/26 02:33:01;;;;;;;0.70;0.70;;;2.60;99.90;2.90;95610.00;;;;5028244;28;20437;-89
2023/02/26 02:35:54;;;;;;;0.80;0.80;;;2.30;99.90;2.70;95608.00;;;;5025719;28;21059;-90
2023/02/26 02:38:49;;;;;;;0.50;0.50;;;1.80;99.90;2.70;95599.00;;;;5024072;28;20416;-89
2023/02/26 02:41:42;;;;;;;0.70;0.70;;;1.80;99.90;2.90;95596.00;;;;5019356;28;20421;-89
2023/02/26 02:44:35;;;;;;;0.80;0.80;;;2.50;99.90;2.90;95598.00;;;;5022279;28;20479;-89
2023/02/26 02:47:27;;;;;;;0.67;0.67;;;1.80;99.90;2.50;95601.00;;;;5026729;28;20444;-89
2023/02/26 02:50:24;;;;;;;0.70;0.70;;;2.50;99.90;2.50;95609.00;;;;5028373;28;21059;-89
2023/02/26 02:53:19;;;;;;;0.70;0.70;;;1.70;99.90;2.40;95609.00;;;;5030019;28;20448;-88
2023/02/26 02:56:14;;;;;;;0.50;0.50;;;2.00;99.90;2.50;95620.00;;;;5031656;28;20432;-89
2023/02/26 02:59:14;;;;;;;1.87;0.90;;;1.60;99.90;2.40;95626.00;;;;5031066;28;20444;-88
2023/02/26 03:02:11;;;;;;;0.53;0.53;;;1.70;99.90;2.50;95629.00;;;;5030925;28;20443;-89
2023/02/26 03:05:00;;;;;;;0.70;0.70;;;1.60;99.90;2.40;95630.00;;;;5031904;28;20518;-89
2023/02/26 03:07:54;;;;;;;0.50;0.50;;;1.70;99.90;2.20;95634.00;;;;5031313;28;20450;-89
2023/02/26 03:10:43;;;;;;;1.00;0.83;;;1.50;99.90;2.40;95645.00;;;;5028639;28;20494;-89
2023/02/26 03:13:32;;;;;;;0.60;0.60;;;1.50;99.90;2.60;95656.00;;;;5030316;28;20456;-88
2023/02/26 03:16:54;;;;;;;1.97;1.70;;;1.50;99.90;2.60;95663.00;;;;5031048;28;21212;-89
2023/02/26 03:20:00;;;;;;;0.83;0.83;;;1.50;99.90;2.70;95668.00;;;;5028246;28;20771;-88
2023/02/26 03:23:03;;;;;;;0.93;0.93;;;1.50;99.90;2.70;95674.00;;;;5029017;28;20878;-89
2023/02/26 03:25:58;;;;;;;0.50;0.50;;;2.60;99.90;2.80;95677.00;;;;5029885;28;20471;-89
2023/02/26 03:28:54;;;;;;;0.53;0.53;;;3.50;99.90;2.80;95680.00;;;;5031768;28;20870;-89
2023/02/26 03:31:52;;;;;;;0.97;0.97;;;2.20;99.90;2.80;95679.00;;;;5022224;28;20525;-89
2023/02/26 03:34:47;;;;;;;0.60;0.60;;;1.80;99.90;2.80;95692.00;;;;5024583;28;20467;-88
2023/02/26 03:37:39;;;;;;;2.93;0.77;;;3.80;99.90;2.70;95697.00;;;;5031728;28;20424;-88
2023/02/26 03:40:36;;;;;;;0.73;0.73;;;1.70;99.90;2.50;95706.00;;;;5031164;28;20460;-88
2023/02/26 03:43:31;;;;;;;0.70;0.70;;;1.50;99.90;2.30;95715.00;;;;5032816;28;20448;-89
2023/02/26 03:46:27;;;;;;;0.50;0.50;;;1.50;99.90;1.90;95698.00;;;;5031686;28;20948;-90
2023/02/26 03:49:38;;;;;;;0.80;0.80;;;1.40;99.90;2.20;95708.00;;;;5031038;28;20424;-87
2023/02/26 03:52:31;;;;;;;0.60;0.60;;;1.30;99.90;2.00;95701.00;;;;5030927;28;20470;-91
2023/02/26 03:55:26;;;;;;;0.60;0.60;;;1.30;99.90;2.00;95700.00;;;;5032360;28;20421;-90
2023/02/26 03:58:17;;;;;;;0.87;0.87;;;3.20;99.90;1.50;95700.00;;;;5018322;28;20934;-92
2023/02/26 04:01:12;;;;;;;0.63;0.63;;;1.70;99.90;1.60;95693.00;;;;5022857;28;20421;-88
2023/02/26 04:04:06;;;;;;;0.67;0.67;;;1.20;99.90;1.30;95670.00;;;;5031311;28;20494;-89
2023/02/26 04:06:55;;;;;;;0.80;0.80;;;0.90;99.90;1.50;95672.00;;;;5030454;28;20416;-89
2023/02/26 04:09:46;;;;;;;0.70;0.70;;;2.00;99.90;1.50;95673.00;;;;5030640;28;20519;-88
2023/02/26 04:12:35;;;;;;;1.03;1.03;;;1.40;99.90;1.40;95687.00;;;;5030705;28;20788;-87
2023/02/26 04:15:25;;;;;;;0.80;0.80;;;0.70;99.90;1.60;95686.00;;;;5030080;28;20433;-88
2023/02/26 04:18:14;;;;;;;0.50;0.50;;;0.60;99.90;1.50;95698.00;;;;5030928;28;20435;-88
2023/02/26 04:21:03;;;;;;;2.00;0.80;;;0.70;99.90;1.40;95693.00;;;;5028996;28;20440;-88
2023/02/26 04:23:52;;;;;;;1.00;1.00;;;0.60;99.90;1.60;95708.00;;;;5032433;28;20526;-88
2023/02/26 04:26:40;;;;;;;0.80;0.80;;;1.10;99.90;1.80;95718.00;;;;5040715;28;20827;-87
2023/02/26 04:29:29;;;;;;;0.80;0.80;;;1.70;99.90;1.70;95703.00;;;;5031210;28;20424;-87
2023/02/26 04:32:19;;;;;;;0.73;0.70;;;1.50;99.90;1.60;95718.00;;;;5030061;28;20444;-88
2023/02/26 04:35:09;;;;;;;0.70;0.70;;;0.70;99.90;1.80;95720.00;;;;5030797;28;20436;-87
2023/02/26 04:37:58;;;;;;;0.70;0.70;;;0.70;99.90;1.90;95719.00;;;;5018763;28;20432;-87
2023/02/26 04:40:47;;;;;;;0.70;0.70;;;0.80;99.90;1.70;95724.00;;;;5030298;28;20448;-87
2023/02/26 04:43:36;;;;;;;0.80;0.80;;;1.20;99.90;1.60;95731.00;;;;5026762;28;20507;-87
2023/02/26 04:46:25;;;;;;;0.50;0.50;;;0.80;99.90;1.50;95735.00;;;;5030200;28;20907;-88
2023/02/26 04:49:15;;;;;;;0.97;0.97;;;0.80;99.90;1.80;95748.00;;;;5029691;28;20432;-88
2023/02/26 04:52:04;;;;;;;0.90;0.90;;;0.70;99.90;1.90;95748.00;;;;5031089;28;20459;-87
2023/02/26 04:54:53;;;;;;;0.70;0.70;;;1.50;99.90;1.70;95730.00;;;;5030581;28;20432;-88
2023/02/26 04:57:42;;;;;;;1.10;1.00;;;0.80;99.90;1.60;95756.00;;;;5030636;28;20449;-87
2023/02/26 05:00:30;;;;;;;0.90;0.90;;;0.80;99.90;1.40;95752.00;;;;5028453;28;20937;-88
2023/02/26 05:03:19;;;;;;;0.53;0.53;;;1.10;99.90;1.50;95752.00;;;;5029866;28;20467;-87
2023/02/26 05:06:10;;;;;;;1.20;1.20;;;1.10;99.90;1.40;95746.00;;;;5024165;28;20474;-88
2023/02/26 05:08:58;;;;;;;1.00;0.80;;;2.80;99.90;1.30;95746.00;;;;5027891;28;20433;-88
2023/02/26 05:11:47;;;;;;;0.80;0.80;;;1.50;99.90;1.40;95757.00;;;;5023299;28;20432;-87
2023/02/26 05:14:36;;;;;;;0.70;0.70;;;1.70;99.90;1.30;95762.00;;;;5030014;28;20440;-88
2023/02/26 05:17:25;;;;;;;0.83;0.83;;;0.60;99.90;1.40;95766.00;;;;5030066;28;20429;-87
2023/02/26 05:20:14;;;;;;;0.93;0.93;;;0.60;99.90;1.60;95759.00;;;;5030544;28;20423;-87
2023/02/26 05:23:04;;;;;;;1.13;1.00;;;1.70;99.90;1.70;95770.00;;;;5030773;28;20981;-87
2023/02/26 05:25:55;;;;;;;1.17;1.17;;;1.50;99.90;1.60;95756.00;;;;5024544;28;20482;-87
2023/02/26 05:28:44;;;;;;;0.80;0.80;;;1.50;99.90;1.40;95769.00;;;;5021916;28;21159;-87
2023/02/26 05:31:33;;;;;;;1.10;1.00;;;1.50;99.90;1.50;95772.00;;;;5028340;28;20812;-87
2023/02/26 05:34:22;;;;;;;0.90;0.90;;;1.30;99.90;1.10;95769.00;;;;5028835;28;20459;-88
2023/02/26 05:37:11;;;;;;;0.80;0.80;;;0.60;99.90;1.50;95772.00;;;;5028795;28;20929;-88
2023/02/26 05:40:01;;;;;;;0.80;0.80;;;0.60;99.90;1.60;95777.00;;;;5029840;28;20508;-88
2023/02/26 05:42:50;;;;;;;0.73;0.73;;;2.70;99.90;1.50;95770.00;;;;5026046;28;20461;-87
2023/02/26 05:45:39;;;;;;;0.97;0.90;;;0.60;99.90;1.60;95773.00;;;;5029998;28;20460;-86
2023/02/26 05:48:28;;;;;;;1.40;1.30;;;1.10;99.90;1.40;95755.00;;;;5028731;28;20964;-87
2023/02/26 05:51:17;;;;;;;1.07;0.97;;;0.60;99.90;1.60;95760.00;;;;5021485;28;20453;-87
2023/02/26 05:54:06;;;;;;;1.17;1.17;;;1.70;99.90;1.90;95761.00;;;;5025287;28;20437;-87
2023/02/26 05:56:56;;;;;;;1.27;1.27;;;0.70;99.90;1.50;95768.00;;;;5027880;28;20428;-88
2023/02/26 05:59:45;;;;;;;1.50;1.40;;;1.00;99.90;1.50;95766.00;;;;5029249;28;20836;-87
2023/02/26 06:02:33;;;;;;;1.53;1.43;;;0.70;99.90;1.60;95771.00;;;;5025499;28;20966;-87
2023/02/26 06:05:22;;;;;;;1.10;1.10;;;0.70;99.90;1.60;95768.00;;;;5028294;28;20459;-87
2023/02/26 06:08:14;;;;;;;0.70;0.70;;;1.60;99.90;1.70;95783.00;;;;5025816;28;21111;-87
2023/02/26 06:11:03;;;;;;;1.03;1.03;;;2.40;99.90;1.50;95790.00;;;;5030666;28;20424;-88
2023/02/26 06:13:53;;;;;;;2.07;0.83;;;1.20;99.90;1.40;95784.00;;;;5017505;28;20983;-88
2023/02/26 06:16:42;;;;;;;1.03;0.93;;;0.70;99.90;1.40;95796.00;;;;5030638;28;20436;-87
2023/02/26 06:19:30;;;;;;;0.80;0.80;;;1.50;99.90;1.00;95805.00;;;;5030322;28;20514;-89
2023/02/26 06:22:19;;;;;;;1.30;1.20;;;0.60;99.90;1.10;95806.00;;;;5029995;28;20443;-88
2023/02/26 06:25:09;;;;;;;1.60;1.23;;;1.70;99.90;1.60;95812.00;;;;5028992;28;20872;-86
2023/02/26 06:27:58;;;;;;;1.13;1.03;;;0.60;99.90;1.70;95820.00;;;;5033756;28;20447;-87
2023/02/26 06:30:48;;;;;;;1.90;1.20;;;1.30;99.90;1.90;95832.00;;;;5031197;28;20428;-87
2023/02/26 06:33:37;;;;;;;1.43;1.33;;;2.00;99.90;1.70;95846.00;;;;5023638;28;20451;-87
2023/02/26 06:36:25;;;;;;;0.80;0.80;;;1.60;99.90;1.80;95833.00;;;;5021804;28;20440;-88
2023/02/26 06:39:14;;;;;;;1.57;1.30;;;1.50;99.90;1.90;95832.00;;;;5032513;28;20413;-87
2023/02/26 06:42:03;;;;;;;2.40;1.70;;;1.50;99.90;1.90;95835.00;;;;5032663;28;20428;-88
2023/02/26 06:44:52;;;;;;;2.07;1.77;;;0.90;99.90;1.90;95848.00;;;;5027143;28;20467;-87
2023/02/26 06:47:42;;;;;;;1.13;1.10;;;0.90;99.90;1.50;95840.00;;;;5021591;28;20436;-88
2023/02/26 06:50:32;;;;;;;1.13;1.00;;;1.30;99.90;1.80;95837.00;;;;5030104;28;20451;-88
2023/02/26 06:53:20;;;;;;;0.77;0.57;;;2.10;99.90;1.50;95832.00;;;;5031526;28;20460;-88
2023/02/26 06:56:09;;;;;;;1.30;1.20;;;1.30;99.90;1.50;95851.00;;;;5028943;28;20429;-87
2023/02/26 06:58:58;;;;;;;0.90;0.90;;;2.10;99.90;1.70;95853.00;;;;5022389;28;20467;-87
2023/02/26 07:01:46;;;;;;;1.20;1.20;;;1.10;99.90;1.80;95839.00;;;;5028093;28;20440;-87
2023/02/26 07:04:37;;;;;;;1.33;1.23;;;0.90;99.90;1.70;95846.00;;;;5026075;28;20547;-87
2023/02/26 07:07:25;;;;;;;1.93;1.73;;;1.40;99.90;2.10;95861.00;;;;5029850;28;20577;-86
2023/02/26 07:10:14;;;;;;;1.60;1.50;;;-0.30;99.90;1.90;95842.00;;;;5027680;28;20937;-88
2023/02/26 07:13:03;;;;;;;1.13;1.00;;;1.10;99.90;2.00;95856.00;;;;5028041;28;20464;-87
2023/02/26 07:15:52;;;;;;;2.77;1.17;;;2.20;99.90;1.90;95852.00;;;;5038628;28;20434;-87
2023/02/26 07:18:41;;;;;;;2.80;1.43;;;1.10;99.90;2.30;95860.00;;;;5026347;28;20852;-89
2023/02/26 07:21:32;;;;;;;2.33;1.90;;;2.70;99.90;1.90;95854.00;;;;5025878;28;20490;-89
2023/02/26 07:24:20;;;;;;;1.00;1.00;;;1.20;99.90;2.40;95860.00;;;;5024514;28;20452;-88
2023/02/26 07:27:09;;;;;;;1.13;1.10;;;1.30;99.90;2.20;95860.00;;;;5026104;28;20558;-88
2023/02/26 07:29:58;;;;;;;0.90;0.90;;;2.10;99.90;1.60;95863.00;;;;5023968;28;20421;-89
2023/02/26 07:32:47;;;;;;;1.10;1.10;;;2.30;99.90;2.50;95871.00;;;;5027998;28;20551;-88
2023/02/26 07:35:36;;;;;;;0.80;0.80;;;1.30;99.90;2.60;95868.00;;;;5031297;28;20845;-88
2023/02/26 07:38:26;;;;;;;0.63;0.63;;;2.50;99.90;2.50;95871.00;;;;5028429;28;20431;-87
2023/02/26 07:41:15;;;;;;;1.03;1.03;;;1.50;99.90;2.30;95881.00;;;;5029631;28;20507;-87
2023/02/26 07:44:04;;;;;;;1.03;1.03;;;2.00;99.90;2.40;95879.00;;;;5030045;28;20463;-88
2023/02/26 07:46:52;;;;;;;0.77;0.77;;;2.40;99.90;2.50;95883.00;;;;5025136;28;20494;-87
2023/02/26 07:49:41;;;;;;;0.63;0.63;;;1.60;99.90;2.80;95889.00;;;;5025224;28;20507;-88
2023/02/26 07:52:30;;;;;;;1.20;1.20;;;1.60;99.90;2.50;95888.00;;;;5025313;28;20452;-87
2023/02/26 07:55:21;;;;;;;1.27;1.17;;;1.80;99.90;2.50;95886.00;;;;5029981;28;20482;-88
2023/02/26 07:58:10;;;;;;;0.80;0.80;;;2.30;99.90;2.20;95881.00;;;;5029526;28;20483;-86
2023/02/26 08:00:59;;;;;;;1.10;1.10;;;1.60;99.90;2.90;95896.00;;;;5030667;28;20506;-87
2023/02/26 08:03:48;;;;;;;0.83;0.83;;;1.70;99.90;2.80;95893.00;;;;5030427;28;20471;-87
2023/02/26 08:06:37;;;;;;;0.80;0.80;;;2.00;99.90;2.70;95884.00;;;;5030623;28;20838;-89
2023/02/26 08:09:25;;;;;;;4.03;2.30;;;1.80;99.90;2.80;95899.00;;;;5030973;28;20483;-87
2023/02/26 08:12:16;;;;;;;2.13;1.90;;;1.80;99.90;2.50;95876.00;;;;5030642;28;20436;-92
2023/02/26 08:15:06;;;;;;;1.47;1.37;;;1.80;99.90;2.50;95882.00;;;;5030664;28;21198;-88
2023/02/26 08:17:55;;;;;;;0.70;0.70;;;1.80;99.90;2.80;95882.00;;;;5026283;28;20527;-91
2023/02/26 08:20:44;;;;;;;1.20;1.10;;;2.00;99.90;3.30;95894.00;;;;5024180;28;20474;-88
2023/02/26 08:23:33;;;;;;;0.87;0.87;;;2.00;99.90;3.40;95894.00;;;;5027253;28;20534;-89
2023/02/26 08:26:22;;;;;;;0.90;0.90;;;2.40;99.90;3.50;95905.00;;;;5041839;28;20468;-88
2023/02/26 08:29:13;;;;;;;1.20;1.10;;;2.50;99.90;4.00;95901.00;;;;5022483;28;20448;-88
2023/02/26 08:32:02;;;;;;;0.90;0.90;;;2.50;99.90;3.80;95895.00;;;;5027137;28;20420;-87
2023/02/26 08:34:51;;;;;;;1.47;1.37;;;2.70;99.90;4.10;95889.00;;;;5028414;28;20436;-90
2023/02/26 08:37:40;;;;;;;1.00;1.00;;;2.80;99.90;4.20;95904.00;;;;5027894;28;20435;-89
2023/02/26 08:40:28;;;;;;;1.57;1.00;;;4.00;99.90;3.80;95919.00;;;;5037106;28;20416;-89
2023/02/26 08:43:17;;;;;;;1.10;1.10;;;3.00;99.90;4.00;95911.00;;;;5027910;28;20953;-88
2023/02/26 08:46:07;;;;;;;1.20;1.10;;;3.20;99.90;4.10;95930.00;;;;5038921;28;20959;-88
2023/02/26 08:48:56;;;;;;;0.70;0.70;;;3.10;99.90;4.00;95930.00;;;;5029765;28;20431;-88
2023/02/26 08:51:45;;;;;;;1.37;1.20;;;3.10;99.90;4.20;95936.00;;;;5028327;28;20522;-90
2023/02/26 08:54:33;;;;;;;1.50;1.40;;;4.80;99.90;4.30;95947.00;;;;5023605;28;20448;-90
2023/02/26 08:57:23;;;;;;;1.20;1.10;;;4.00;99.90;3.80;95966.00;;;;5023710;28;20421;-88
2023/02/26 09:00:15;;;;;;;0.80;0.80;;;3.10;99.50;4.50;95972.00;;;;5024094;28;20412;-87
2023/02/26 09:03:05;;;;;;;1.17;1.10;;;3.20;99.90;4.60;95991.00;;;;5025988;28;20844;-91
2023/02/26 09:05:54;;;;;;;1.00;1.00;;;3.30;99.90;4.40;95979.00;;;;5025011;28;20440;-87
2023/02/26 09:08:43;;;;;;;0.80;0.80;;;3.40;99.90;5.20;95992.00;;;;5025732;28;20478;-88
2023/02/26 09:11:32;;;;;;;0.93;0.93;;;5.00;99.90;5.30;96004.00;;;;5025310;28;20432;-89
2023/02/26 09:14:21;;;;;;;0.67;0.60;;;3.90;99.90;4.10;95998.00;;;;5023529;28;20455;-91
2023/02/26 09:17:09;;;;;;;0.60;0.60;;;3.70;97.80;4.20;95991.00;;;;5027744;28;20412;-90
2023/02/26 09:20:00;;;;;;;0.70;0.70;;;3.60;99.20;3.50;95979.00;;;;5028819;28;20463;-91
2023/02/26 09:22:49;;;;;;;1.70;0.63;;;4.10;97.00;4.70;96001.00;;;;5024124;28;20945;-87
2023/02/26 09:25:37;;;;;;;2.10;1.70;;;3.50;98.00;4.90;95999.00;;;;5029399;28;20434;-88
2023/02/26 09:28:26;;;;;;;0.80;0.80;;;3.60;99.00;5.20;96001.00;;;;5028072;28;20475;-89
2023/02/26 09:31:15;;;;;;;1.13;1.10;;;3.80;98.20;5.50;95988.00;;;;5025988;28;20440;-89
2023/02/26 09:34:04;;;;;;;0.73;0.73;;;4.00;98.80;5.70;96008.00;;;;5022776;28;20463;-89
2023/02/26 09:36:54;;;;;;;0.80;0.80;;;4.20;99.10;5.00;96004.00;;;;5026144;28;20212;-89
2023/02/26 09:39:43;;;;;;;0.63;0.63;;;4.20;96.70;4.70;96044.00;;;;5028301;28;20452;-88
2023/02/26 09:43:00;;;;;;;2.03;1.27;;;5.30;97.00;4.90;96039.00;;;;5022602;28;20678;-90
2023/02/26 09:45:51;;;;;;;2.70;1.17;;;4.00;95.60;5.20;96033.00;;;;5027480;28;20444;-90
2023/02/26 09:48:43;;;;;;;0.80;0.80;;;4.00;96.20;5.10;96030.00;;;;5026651;28;20225;-90
2023/02/26 09:51:34;;;;;;;0.93;0.90;;;4.00;95.80;5.20;96041.00;;;;5032888;28;20215;-88
2023/02/26 09:54:29;;;;;;;1.00;1.00;;;4.00;95.90;5.00;96036.00;;;;5026577;28;20707;-89
2023/02/26 09:57:29;;;;;;;0.90;0.83;;;4.10;95.90;5.00;96037.00;;;;5024134;28;20216;-89
2023/02/26 10:00:34;;;;;;;0.73;0.73;;;4.10;95.50;5.50;96019.00;;;;5032936;28;20228;-90
2023/02/26 10:03:30;;;;;;;0.90;0.90;;;4.00;95.20;5.90;96036.00;;;;5024373;28;20233;-92
2023/02/26 10:06:26;;;;;;;1.03;1.03;;;4.30;94.70;5.70;96044.00;;;;5022660;28;20201;-90
2023/02/26 10:09:36;;;;;;;1.23;0.90;;;4.50;94.10;6.10;96031.00;;;;5022334;28;20278;-90
2023/02/26 10:12:28;;;;;;;0.87;0.83;;;4.70;93.00;6.20;96048.00;;;;5019702;28;20209;-90
2023/02/26 10:15:22;;;;;;;1.23;0.80;;;4.80;92.00;6.30;96054.00;;;;5020164;28;20198;-91
2023/02/26 10:18:17;;;;;;;1.90;1.10;;;5.80;91.80;6.60;96043.00;;;;5025214;28;20239;-90
2023/02/26 10:21:12;;;;;;;0.87;0.73;;;5.20;91.30;6.50;96044.00;;;;5026264;28;20194;-90
2023/02/26 10:24:07;;;;;;;1.27;1.17;;;5.20;90.70;5.60;96036.00;;;;5024483;28;20221;-88
2023/02/26 10:27:03;;;;;;;2.80;0.57;;;5.20;90.70;5.90;96054.00;;;;5018504;28;20628;-87
2023/02/26 10:29:59;;;;;;;0.90;0.90;;;5.10;89.30;6.10;96052.00;;;;5020235;28;20670;-90
2023/02/26 10:33:00;;;;;;;1.60;1.13;;;5.10;90.30;4.80;96050.00;;;;5021983;28;20214;-88
2023/02/26 10:35:54;;;;;;;0.60;0.60;;;4.90;83.90;5.50;96061.00;;;;5025807;28;20584;-90
2023/02/26 10:38:47;;;;;;;1.00;1.00;;;5.30;86.80;5.80;96062.00;;;;5019522;28;20913;-88
2023/02/26 10:41:37;;;;;;;0.80;0.80;;;4.80;86.10;5.50;96067.00;;;;5019590;28;20724;-89
2023/02/26 10:44:37;;;;;;;0.70;0.70;;;4.80;87.70;5.90;96064.00;;;;5028247;28;20272;-89
2023/02/26 10:47:38;;;;;;;0.93;0.90;;;4.80;87.70;5.90;96072.00;;;;5023983;28;20217;-90
2023/02/26 10:50:27;;;;;;;2.47;1.40;;;4.80;86.60;5.90;96062.00;;;;5024786;28;20206;-89
2023/02/26 10:53:16;;;;;;;2.17;1.97;;;4.80;86.50;6.70;96078.00;;;;5027285;28;20314;-92
2023/02/26 10:56:10;;;;;;;0.93;0.90;;;5.00;87.70;6.30;96087.00;;;;5036205;28;20243;-92
2023/02/26 10:58:59;;;;;;;0.67;0.67;;;5.10;85.50;5.40;96081.00;;;;5023233;28;20213;-91
2023/02/26 11:01:51;;;;;;;2.20;0.60;;;5.00;82.90;5.10;96083.00;;;;5029652;28;20201;-88
2023/02/26 11:04:41;;;;;;;0.67;0.67;;;5.90;84.80;5.80;96094.00;;;;5032270;28;20276;-89
2023/02/26 11:07:32;;;;;;;3.03;0.80;;;4.90;83.50;6.30;96081.00;;;;5027897;28;20232;-89
2023/02/26 11:10:31;;;;;;;1.17;0.63;;;5.00;83.10;6.30;96089.00;;;;5040287;28;20822;-90
2023/02/26 11:13:22;;;;;;;0.70;0.70;;;5.10;82.60;5.60;96073.00;;;;5027504;28;20221;-91
2023/02/26 11:16:15;;;;;;;1.23;1.13;;;5.90;82.10;5.80;96062.00;;;;5027119;28;20213;-90
2023/02/26 11:19:06;;;;;;;0.80;0.70;;;5.00;83.70;6.40;96073.00;;;;5026031;28;20701;-89
2023/02/26 11:21:55;;;;;;;0.70;0.70;;;5.00;83.50;6.10;96077.00;;;;5024053;28;20205;-90
2023/02/26 11:24:48;;;;;;;0.80;0.80;;;5.40;84.20;6.20;96069.00;;;;5023594;28;20690;-88
2023/02/26 11:27:38;;;;;;;0.50;0.50;;;5.50;84.80;6.30;96075.00;;;;5022333;28;20208;-89
2023/02/26 11:30:31;;;;;;;0.80;0.80;;;5.20;83.50;6.80;96092.00;;;;5031850;28;20208;-89
2023/02/26 11:33:24;;;;;;;0.93;0.70;;;5.30;84.10;5.80;96090.00;;;;5028298;28;20221;-88
2023/02/26 11:36:18;;;;;;;0.70;0.70;;;5.30;82.20;6.30;96091.00;;;;5038578;28;20201;-89
2023/02/26 11:39:18;;;;;;;0.73;0.73;;;5.40;83.10;5.20;96098.00;;;;5035354;28;20236;-90
2023/02/26 11:42:06;;;;;;;0.90;0.90;;;5.20;83.50;5.40;96097.00;;;;5031456;28;20197;-88
2023/02/26 11:44:57;;;;;;;0.67;0.67;;;5.30;83.80;5.30;96088.00;;;;5027233;28;20205;-90
2023/02/26 11:47:48;;;;;;;0.40;0.40;;;5.00;84.80;4.70;96096.00;;;;5025286;28;20198;-90
2023/02/26 11:50:42;;;;;;;0.70;0.70;;;4.70;85.00;5.80;96096.00;;;;5024878;28;20265;-88
2023/02/26 11:53:36;;;;;;;0.70;0.70;;;4.80;87.10;6.90;96105.00;;;;5029031;28;20221;-90
2023/02/26 11:56:30;;;;;;;2.00;0.70;;;5.00;87.70;7.00;96103.00;;;;5028842;28;20216;-88
2023/02/26 11:59:23;;;;;;;0.80;0.63;;;5.40;87.40;6.90;96099.00;;;;5030113;28;20232;-90
2023/02/26 12:02:14;;;;;;;0.50;0.50;;;5.50;85.50;6.70;96091.00;;;;5029747;28;20205;-90
2023/02/26 12:05:06;;;;;;;0.60;0.60;;;5.70;84.00;6.20;96094.00;;;;5031256;28;20292;-89
2023/02/26 12:07:55;;;;;;;0.50;0.50;;;5.70;82.80;5.60;96089.00;;;;5029664;28;20618;-89
2023/02/26 12:11:13;;;;;;;0.67;0.63;;;5.50;80.80;6.20;96109.00;;;;5026084;28;20213;-88
2023/02/26 12:14:17;;;;;;;0.47;0.47;;;5.40;80.30;5.90;96092.00;;;;5030392;28;20229;-91
2023/02/26 12:17:25;;;;;;;0.63;0.63;;;5.40;80.30;6.40;96113.00;;;;5023641;28;20193;-88
2023/02/26 12:20:26;;;;;;;1.50;1.30;;;5.30;81.80;5.80;96098.00;;;;5025720;28;20209;-90
2023/02/26 12:23:40;;;;;;;16.50;10.63;;;5.10;80.30;6.10;96102.00;;;;5022411;28;20220;-91
2023/02/26 12:26:34;;;;;;;1.67;1.17;;;5.10;79.90;5.40;96111.00;;;;5022984;28;20217;-90
2023/02/26 12:29:44;;;;;;;1.97;1.20;;;5.00;77.00;6.70;96137.00;;;;5021633;28;20225;-89
2023/02/26 12:32:48;;;;;;;1.20;1.10;;;5.70;78.60;5.20;96125.00;;;;5026522;28;20208;-92
2023/02/26 12:35:49;;;;;;;4.17;2.73;;;5.00;79.30;5.70;96140.00;;;;5027977;28;20312;-89
2023/02/26 12:38:47;;;;;;;0.77;0.77;;;4.90;77.90;5.20;96133.00;;;;5030283;28;20324;-90
2023/02/26 12:41:54;;;;;;;6.63;1.20;;;4.70;76.30;6.30;96139.00;;;;5030256;28;20605;-89
2023/02/26 12:45:11;;;;;;;0.57;0.57;;;4.80;78.10;5.60;96143.00;;;;5028818;28;20229;-90
2023/02/26 12:48:33;;;;;;;2.03;0.77;;;4.90;75.20;6.00;96162.00;;;;5025507;28;20267;-89
2023/02/26 12:51:39;;;;;;;0.60;0.60;;;4.80;75.80;6.30;96160.00;;;;5023655;28;20209;-88
2023/02/26 12:54:45;;;;;;;1.33;1.23;;;5.90;76.40;5.60;96154.00;;;;5025161;28;20213;-89
2023/02/26 12:57:54;;;;;;;0.50;0.50;;;4.80;74.10;5.70;96161.00;;;;5028789;28;20200;-90
2023/02/26 13:01:14;;;;;;;0.63;0.63;;;4.80;75.20;4.60;96149.00;;;;5021510;28;20194;-90
2023/02/26 13:04:47;;;;;;;0.50;0.50;;;4.80;74.50;5.90;96170.00;;;;5023167;28;20319;-89
2023/02/26 13:08:05;;;;;;;0.50;0.43;;;5.40;77.50;5.70;96172.00;;;;5025312;28;20655;-89